Time;durP1;ratioP1;P1;durP2;ratioP2;P2;SDS_P1;SDS_P2;PMS_P1;PMS_P2;Temp;Humidity;BMP_temperature;BMP_pressure;BME280_temperature;BME280_humidity;BME280_pressure;Samples;Min_cycle;Max_cycle;Signal;HPM_P1;HPM_P2
2022/08/14 00:02:12;;;;;;;8.88;4.53;;;23.00;99.90;;;;;;5096484;28;20620;-75
2022/08/14 00:04:39;;;;;;;9.07;4.95;;;23.10;99.90;;;;;;5096752;28;20597;-75
2022/08/14 00:07:07;;;;;;;5.90;4.80;;;23.20;99.90;;;;;;5096537;28;20245;-75
2022/08/14 00:09:34;;;;;;;6.63;5.20;;;23.20;99.90;;;;;;5096434;28;20245;-75
2022/08/14 00:12:03;;;;;;;5.60;4.82;;;23.20;99.90;;;;;;5095839;28;20268;-75
2022/08/14 00:14:30;;;;;;;10.20;5.00;;;23.10;99.90;;;;;;5096456;28;20289;-75
2022/08/14 00:16:57;;;;;;;8.60;5.00;;;22.90;99.90;;;;;;5096315;28;20251;-75
2022/08/14 00:19:24;;;;;;;6.00;5.32;;;22.90;99.90;;;;;;5096061;28;20662;-75
2022/08/14 00:21:52;;;;;;;6.45;5.45;;;22.80;99.90;;;;;;5096250;28;20221;-75
2022/08/14 00:24:21;;;;;;;9.68;6.30;;;22.80;99.90;;;;;;5096493;28;20236;-75
2022/08/14 00:26:48;;;;;;;8.27;6.00;;;22.70;99.90;;;;;;5095784;28;20230;-76
2022/08/14 00:29:15;;;;;;;7.53;6.85;;;22.60;99.90;;;;;;5096013;28;20621;-75
2022/08/14 00:31:42;;;;;;;9.50;6.90;;;22.50;99.90;;;;;;5095785;28;20694;-75
2022/08/14 00:34:09;;;;;;;8.77;7.80;;;22.50;99.90;;;;;;5096068;28;20669;-75
2022/08/14 00:36:36;;;;;;;9.32;8.43;;;22.40;99.90;;;;;;5096215;28;20289;-75
2022/08/14 00:39:03;;;;;;;9.50;8.57;;;22.40;99.90;;;;;;5095822;28;20205;-75
2022/08/14 00:41:32;;;;;;;9.52;8.68;;;22.40;99.90;;;;;;5095354;28;20198;-75
2022/08/14 00:44:00;;;;;;;13.35;9.35;;;22.30;99.90;;;;;;5095608;28;20238;-75
2022/08/14 00:46:27;;;;;;;11.05;9.95;;;22.30;99.90;;;;;;5095867;28;20234;-75
2022/08/14 00:48:54;;;;;;;11.25;10.10;;;22.30;99.90;;;;;;5095775;28;20203;-75
2022/08/14 00:51:21;;;;;;;11.10;10.05;;;22.30;99.90;;;;;;5095721;28;20315;-75
2022/08/14 00:53:49;;;;;;;11.13;10.13;;;22.30;99.90;;;;;;5095494;28;20252;-75
2022/08/14 00:56:17;;;;;;;11.15;10.05;;;22.30;99.90;;;;;;5094824;28;20240;-75
2022/08/14 00:58:46;;;;;;;12.30;11.10;;;22.20;99.90;;;;;;5094836;28;20224;-75
2022/08/14 01:01:16;;;;;;;13.55;11.90;;;22.10;99.90;;;;;;5095445;28;20234;-75
2022/08/14 01:03:44;;;;;;;11.45;10.43;;;22.10;99.90;;;;;;5095184;28;20696;-75
2022/08/14 01:06:15;;;;;;;12.90;11.70;;;22.10;99.90;;;;;;5095557;28;20249;-76
2022/08/14 01:08:43;;;;;;;11.95;10.73;;;22.10;99.90;;;;;;5095189;28;20233;-75
2022/08/14 01:11:14;;;;;;;13.00;11.52;;;22.00;99.90;;;;;;5095408;28;20221;-76
2022/08/14 01:13:45;;;;;;;12.32;11.07;;;22.00;99.90;;;;;;5095456;28;20217;-75
2022/08/14 01:16:16;;;;;;;13.30;11.00;;;22.00;99.90;;;;;;5095110;28;20209;-75
2022/08/14 01:21:33;;;;;;;13.02;10.95;;;21.90;99.90;;;;;;5095109;28;20197;-75
2022/08/14 01:24:00;;;;;;;11.70;10.60;;;21.90;99.90;;;;;;5094726;28;20205;-75
2022/08/14 01:26:28;;;;;;;11.15;10.15;;;21.80;99.90;;;;;;5094954;28;20676;-75
2022/08/14 01:28:58;;;;;;;10.80;9.65;;;21.80;99.90;;;;;;5094883;28;20194;-75
2022/08/14 01:31:27;;;;;;;12.38;10.15;;;21.80;99.90;;;;;;5094671;28;20599;-75
2022/08/14 01:33:58;;;;;;;11.90;10.48;;;21.80;99.90;;;;;;5094218;28;20283;-75
2022/08/14 01:36:26;;;;;;;10.98;9.85;;;21.70;99.90;;;;;;5094844;28;20290;-75
2022/08/14 01:38:56;;;;;;;12.27;11.15;;;21.70;99.90;;;;;;5093420;28;20202;-76
2022/08/14 01:41:26;;;;;;;11.73;10.57;;;21.70;99.90;;;;;;5094272;28;20296;-76
2022/08/14 01:43:58;;;;;;;14.30;10.32;;;21.70;99.90;;;;;;5094477;28;20217;-76
2022/08/14 01:46:25;;;;;;;11.10;10.00;;;21.70;99.90;;;;;;5094564;28;20198;-75
2022/08/14 01:48:52;;;;;;;11.40;10.30;;;21.70;99.90;;;;;;5094285;28;20289;-75
2022/08/14 01:51:21;;;;;;;10.95;9.95;;;21.70;99.90;;;;;;5094522;28;20251;-75
2022/08/14 01:53:53;;;;;;;11.55;10.55;;;21.70;99.90;;;;;;5093984;28;20692;-75
2022/08/14 01:56:28;;;;;;;11.77;10.65;;;21.60;99.90;;;;;;5094287;28;20206;-76
2022/08/14 01:58:55;;;;;;;11.85;10.68;;;21.50;99.90;;;;;;5094110;28;20225;-75
2022/08/14 02:01:22;;;;;;;12.50;11.20;;;21.30;99.90;;;;;;5094195;28;20694;-75
2022/08/14 02:03:49;;;;;;;17.00;12.93;;;21.10;99.90;;;;;;5094313;28;20226;-75
2022/08/14 02:06:16;;;;;;;15.07;12.98;;;21.00;99.90;;;;;;5093719;28;20662;-76
2022/08/14 02:08:43;;;;;;;14.98;13.48;;;21.00;99.90;;;;;;5094044;28;20279;-75
2022/08/14 02:11:17;;;;;;;15.88;14.18;;;20.90;99.90;;;;;;5093956;28;20290;-76
2022/08/14 02:13:48;;;;;;;15.85;14.20;;;20.90;99.90;;;;;;5093873;28;20254;-75
2022/08/14 02:16:17;;;;;;;15.15;13.63;;;20.80;99.90;;;;;;5099097;28;20233;-75
2022/08/14 02:18:45;;;;;;;16.80;14.77;;;20.70;99.90;;;;;;5094644;28;20582;-75
2022/08/14 02:21:13;;;;;;;16.35;14.65;;;20.70;99.90;;;;;;5093851;28;20237;-75
2022/08/14 02:23:41;;;;;;;17.93;16.07;;;20.60;99.90;;;;;;5093896;28;20273;-76
2022/08/14 02:26:17;;;;;;;18.05;16.17;;;20.50;99.90;;;;;;5093904;28;20206;-76
2022/08/14 02:28:44;;;;;;;17.98;16.10;;;20.40;99.90;;;;;;5093894;28;20237;-75
2022/08/14 02:31:13;;;;;;;17.05;15.35;;;20.40;99.90;;;;;;5093763;28;20277;-75
2022/08/14 02:33:41;;;;;;;21.60;17.60;;;20.30;99.90;;;;;;5093549;28;20710;-76
2022/08/14 02:36:09;;;;;;;19.07;17.13;;;20.30;99.90;;;;;;5093152;28;20195;-75
2022/08/14 02:38:39;;;;;;;18.00;16.20;;;20.20;99.90;;;;;;5093307;28;20194;-75
2022/08/14 02:41:09;;;;;;;20.10;18.00;;;20.00;99.90;;;;;;5093619;28;20670;-75
2022/08/14 02:43:37;;;;;;;19.43;17.60;;;20.10;99.90;;;;;;5093617;28;20229;-75
2022/08/14 02:46:07;;;;;;;21.10;19.00;;;20.10;99.90;;;;;;5093306;28;20198;-75
2022/08/14 02:48:38;;;;;;;19.57;17.57;;;20.00;99.90;;;;;;5093335;28;20198;-75
2022/08/14 02:51:06;;;;;;;22.23;18.33;;;20.00;99.90;;;;;;5093356;28;20248;-75
2022/08/14 02:53:33;;;;;;;20.67;18.63;;;19.80;99.90;;;;;;5093262;28;20605;-76
2022/08/14 02:56:03;;;;;;;21.50;19.40;;;19.70;99.90;;;;;;5093015;28;20286;-75
2022/08/14 02:58:31;;;;;;;21.13;18.90;;;19.70;99.90;;;;;;5093419;28;20257;-76
2022/08/14 03:00:58;;;;;;;22.63;19.23;;;19.50;99.90;;;;;;5093134;28;20198;-76
2022/08/14 03:03:25;;;;;;;20.60;18.70;;;19.50;99.90;;;;;;5093346;28;20571;-75
2022/08/14 03:05:54;;;;;;;17.97;15.73;;;19.40;99.90;;;;;;5100993;28;20244;-75
2022/08/14 03:08:22;;;;;;;19.90;15.67;;;19.30;99.90;;;;;;5113651;28;20241;-76
2022/08/14 03:10:49;;;;;;;15.00;12.33;;;19.30;99.90;;;;;;5113151;28;20257;-76
2022/08/14 03:13:16;;;;;;;14.80;11.40;;;19.30;99.90;;;;;;5113459;28;20742;-76
2022/08/14 03:15:46;;;;;;;13.03;11.63;;;19.30;99.90;;;;;;5113459;28;20225;-76
2022/08/14 03:18:14;;;;;;;13.63;11.97;;;19.30;99.90;;;;;;5113340;28;20212;-76
2022/08/14 03:20:41;;;;;;;14.13;10.53;;;19.40;99.90;;;;;;5112650;28;20194;-76
2022/08/14 03:23:09;;;;;;;10.53;8.73;;;19.30;99.90;;;;;;5113463;28;20260;-76
2022/08/14 03:25:36;;;;;;;11.60;8.73;;;19.40;99.90;;;;;;5113322;28;20286;-76
2022/08/14 03:28:05;;;;;;;12.57;9.27;;;19.30;99.90;;;;;;5113513;28;20197;-77
2022/08/14 03:30:33;;;;;;;11.57;8.97;;;19.30;99.90;;;;;;5113127;28;20202;-76
2022/08/14 03:33:00;;;;;;;13.13;9.17;;;19.30;99.90;;;;;;5113409;28;20262;-76
2022/08/14 03:35:27;;;;;;;12.20;9.03;;;19.20;99.90;;;;;;5112967;28;20225;-76
2022/08/14 03:37:54;;;;;;;12.03;10.40;;;19.20;99.90;;;;;;5113420;28;20288;-76
2022/08/14 03:40:24;;;;;;;17.27;11.63;;;19.20;99.90;;;;;;5113304;28;20236;-76
2022/08/14 03:42:51;;;;;;;13.63;12.17;;;19.10;99.90;;;;;;5113186;28;20315;-76
2022/08/14 03:45:18;;;;;;;14.33;11.60;;;19.20;99.90;;;;;;5113025;28;20656;-76
2022/08/14 03:47:45;;;;;;;13.63;10.33;;;19.20;99.90;;;;;;5112974;28;20193;-76
2022/08/14 03:50:12;;;;;;;11.27;8.97;;;19.30;99.90;;;;;;5113165;28;20635;-76
2022/08/14 03:52:41;;;;;;;14.90;9.27;;;19.40;99.90;;;;;;5112820;28;20654;-76
2022/08/14 03:55:11;;;;;;;15.43;10.10;;;19.40;99.90;;;;;;5112654;28;20233;-76
2022/08/14 03:57:39;;;;;;;12.53;10.03;;;19.40;99.90;;;;;;5112820;28;20634;-76
2022/08/14 04:00:12;;;;;;;15.67;12.53;;;19.40;99.90;;;;;;5112665;28;20293;-76
2022/08/14 04:02:40;;;;;;;16.47;13.37;;;19.40;99.90;;;;;;5112386;28;20749;-76
2022/08/14 04:05:08;;;;;;;17.00;14.07;;;19.30;99.90;;;;;;5111208;28;20212;-76
2022/08/14 04:07:37;;;;;;;20.07;15.00;;;19.20;99.90;;;;;;5092508;28;20281;-76
2022/08/14 04:10:06;;;;;;;15.57;13.87;;;19.30;99.90;;;;;;5092194;28;20654;-76
2022/08/14 04:12:35;;;;;;;15.00;13.43;;;19.20;99.90;;;;;;5092546;28;20233;-76
2022/08/14 04:15:04;;;;;;;15.63;10.70;;;19.20;99.90;;;;;;5092862;28;20307;-75
2022/08/14 04:17:32;;;;;;;11.83;10.57;;;19.20;99.90;;;;;;5092085;28;20198;-76
2022/08/14 04:20:05;;;;;;;15.10;11.00;;;19.20;99.90;;;;;;5092161;28;20229;-76
2022/08/14 04:22:33;;;;;;;16.10;11.80;;;19.30;99.90;;;;;;5092210;28;20313;-76
2022/08/14 04:25:00;;;;;;;14.17;11.47;;;19.30;99.90;;;;;;5092371;28;20615;-76
2022/08/14 04:27:28;;;;;;;13.57;11.40;;;19.30;99.90;;;;;;5092388;28;20552;-76
2022/08/14 04:29:56;;;;;;;14.20;10.77;;;19.30;99.90;;;;;;5092086;28;20202;-76
2022/08/14 04:32:26;;;;;;;12.27;9.80;;;19.30;99.90;;;;;;5093040;28;20561;-76
2022/08/14 04:34:53;;;;;;;12.17;8.93;;;19.20;99.90;;;;;;5096208;28;20203;-76
2022/08/14 04:45:39;;;;;;;11.73;10.47;;;19.30;99.90;;;;;;5095684;28;20228;-76
2022/08/14 04:48:13;;;;;;;12.40;10.97;;;19.30;99.90;;;;;;5095373;28;20260;-76
2022/08/14 04:50:44;;;;;;;11.93;10.67;;;19.30;99.90;;;;;;5095747;28;20211;-76
2022/08/14 04:53:12;;;;;;;14.40;10.77;;;19.30;99.90;;;;;;5095527;28;20195;-76
2022/08/14 04:55:41;;;;;;;11.47;10.30;;;19.30;99.90;;;;;;5095234;28;20725;-76
2022/08/14 04:58:09;;;;;;;15.13;11.23;;;19.30;99.90;;;;;;5095210;28;20706;-76
2022/08/14 05:00:38;;;;;;;12.13;10.33;;;19.30;99.90;;;;;;5095052;28;20286;-76
2022/08/14 05:03:07;;;;;;;13.33;10.27;;;19.20;99.90;;;;;;5095243;28;20222;-76
2022/08/14 05:05:35;;;;;;;13.60;9.73;;;19.20;99.90;;;;;;5095407;28;20230;-76
2022/08/14 05:08:10;;;;;;;12.30;10.03;;;19.20;99.90;;;;;;5095611;28;20616;-76
2022/08/14 05:10:39;;;;;;;14.43;9.43;;;19.10;99.90;;;;;;5095248;28;20205;-76
2022/08/14 05:13:07;;;;;;;13.87;9.57;;;19.10;99.90;;;;;;5095122;28;20234;-76
2022/08/14 05:15:35;;;;;;;10.93;9.73;;;19.10;99.90;;;;;;5094791;28;20734;-76
2022/08/14 05:18:04;;;;;;;13.20;11.20;;;19.10;99.90;;;;;;5094828;28;20203;-76
2022/08/14 05:20:34;;;;;;;14.90;12.20;;;19.10;99.90;;;;;;5095349;28;20622;-76
2022/08/14 05:23:02;;;;;;;14.20;12.37;;;19.10;99.90;;;;;;5095089;28;20659;-76
2022/08/14 05:25:29;;;;;;;15.47;12.97;;;19.10;99.90;;;;;;5094916;28;20202;-76
2022/08/14 05:27:59;;;;;;;15.27;13.77;;;19.10;99.90;;;;;;5095107;28;20241;-76
2022/08/14 05:30:26;;;;;;;15.90;14.23;;;19.10;99.90;;;;;;5094979;28;20194;-75
2022/08/14 05:32:53;;;;;;;16.50;14.43;;;19.10;99.90;;;;;;5094938;28;20289;-76
2022/08/14 05:35:20;;;;;;;17.03;15.43;;;19.10;99.90;;;;;;5094481;28;20255;-75
2022/08/14 05:37:49;;;;;;;18.03;16.23;;;19.10;99.90;;;;;;5094668;28;20283;-75
2022/08/14 05:40:16;;;;;;;17.97;16.07;;;19.00;99.90;;;;;;5094517;28;20661;-76
2022/08/14 05:42:43;;;;;;;18.53;16.73;;;19.00;99.90;;;;;;5094103;28;20264;-76
2022/08/14 05:45:11;;;;;;;19.13;17.17;;;18.90;99.90;;;;;;5094453;28;20209;-76
2022/08/14 05:47:40;;;;;;;19.67;17.67;;;18.90;99.90;;;;;;5094521;28;20194;-76
2022/08/14 05:50:09;;;;;;;19.87;17.93;;;18.90;99.90;;;;;;5094304;28;20677;-76
2022/08/14 05:52:36;;;;;;;20.57;18.33;;;18.90;99.90;;;;;;5094349;28;20198;-76
2022/08/14 05:55:07;;;;;;;21.00;18.90;;;18.90;99.90;;;;;;5094445;28;20257;-76
2022/08/14 05:57:33;;;;;;;21.83;19.67;;;18.80;99.90;;;;;;5094169;28;20305;-76
2022/08/14 06:00:00;;;;;;;20.83;18.83;;;18.80;99.90;;;;;;5093790;28;20234;-76
2022/08/14 06:02:27;;;;;;;21.00;18.40;;;18.80;99.90;;;;;;5094314;28;20612;-76
2022/08/14 06:04:54;;;;;;;21.00;19.00;;;18.80;99.90;;;;;;5094441;28;20303;-76
2022/08/14 06:07:21;;;;;;;21.80;19.67;;;18.80;99.90;;;;;;5094084;28;20267;-76
2022/08/14 06:09:48;;;;;;;21.20;19.20;;;18.90;99.90;;;;;;5093969;28;20670;-76
2022/08/14 06:12:17;;;;;;;21.03;19.03;;;18.80;99.90;;;;;;5094225;28;20194;-76
2022/08/14 06:14:43;;;;;;;21.87;19.70;;;18.90;99.90;;;;;;5093700;28;20218;-76
2022/08/14 06:17:11;;;;;;;21.83;19.07;;;18.90;99.90;;;;;;5093695;28;20283;-76
2022/08/14 06:19:37;;;;;;;21.90;19.80;;;18.80;99.90;;;;;;5093002;28;20696;-77
2022/08/14 06:22:05;;;;;;;21.67;19.57;;;18.90;99.90;;;;;;5093578;28;20240;-76
2022/08/14 06:24:31;;;;;;;21.27;19.10;;;18.80;99.90;;;;;;5093654;28;20257;-76
2022/08/14 06:26:58;;;;;;;20.47;18.47;;;18.80;99.90;;;;;;5093931;28;20257;-76
2022/08/14 06:29:27;;;;;;;20.40;18.50;;;18.80;99.90;;;;;;5093188;28;20238;-76
2022/08/14 06:31:54;;;;;;;20.47;18.47;;;18.80;99.90;;;;;;5093670;28;20233;-76
2022/08/14 06:34:20;;;;;;;19.70;17.87;;;18.80;99.90;;;;;;5093540;28;20281;-76
2022/08/14 06:36:47;;;;;;;19.27;17.33;;;18.20;99.90;;;;;;5093673;28;20234;-76
2022/08/14 06:39:14;;;;;;;19.77;17.87;;;18.80;99.90;;;;;;5093572;28;20241;-76
2022/08/14 06:41:41;;;;;;;20.40;18.33;;;19.10;99.90;;;;;;5093565;28;20237;-76
2022/08/14 06:44:08;;;;;;;20.43;18.43;;;18.80;99.90;;;;;;5093529;28;20257;-76
2022/08/14 06:46:37;;;;;;;20.03;18.13;;;18.80;99.90;;;;;;5093352;28;20241;-76
2022/08/14 06:49:04;;;;;;;20.70;18.53;;;19.00;99.90;;;;;;5093754;28;20289;-76
2022/08/14 06:51:31;;;;;;;20.30;18.03;;;19.00;99.90;;;;;;5093620;28;20237;-76
2022/08/14 06:53:58;;;;;;;20.73;18.47;;;19.00;99.90;;;;;;5093223;28;20237;-76
2022/08/14 06:56:25;;;;;;;19.43;17.43;;;19.10;99.90;;;;;;5092335;28;20597;-76
2022/08/14 06:58:52;;;;;;;18.60;16.80;;;19.10;99.90;;;;;;5093044;28;20214;-76
2022/08/14 07:06:49;;;;;;;17.37;15.67;;;19.00;99.90;;;;;;5065993;28;20706;-76
2022/08/14 07:09:16;;;;;;;18.67;16.70;;;19.00;99.90;;;;;;5070624;28;20199;-76
2022/08/14 07:11:43;;;;;;;18.13;16.20;;;19.00;99.90;;;;;;5070115;28;20357;-76
2022/08/14 07:14:10;;;;;;;18.47;16.67;;;19.10;99.90;;;;;;5070556;28;20402;-76
2022/08/14 07:16:37;;;;;;;19.93;17.63;;;19.10;99.90;;;;;;5070325;28;20286;-76
2022/08/14 07:19:07;;;;;;;19.90;17.67;;;19.10;99.90;;;;;;5070630;28;20234;-76
2022/08/14 07:21:35;;;;;;;21.00;18.90;;;19.00;99.90;;;;;;5070422;28;20225;-76
2022/08/14 07:24:03;;;;;;;21.03;18.53;;;19.00;99.90;;;;;;5070218;28;20218;-76
2022/08/14 07:26:30;;;;;;;20.63;18.53;;;18.80;99.90;;;;;;5070125;28;20687;-76
2022/08/14 07:28:56;;;;;;;21.60;19.50;;;18.80;99.90;;;;;;5070422;28;20237;-76
2022/08/14 07:31:23;;;;;;;21.13;18.93;;;18.90;99.90;;;;;;5070395;28;20203;-76
2022/08/14 07:33:50;;;;;;;19.33;17.23;;;18.90;99.90;;;;;;5070314;28;20195;-76
2022/08/14 07:36:20;;;;;;;20.77;17.40;;;18.80;99.90;;;;;;5070516;28;20293;-76
2022/08/14 07:38:47;;;;;;;17.77;16.07;;;18.80;99.90;;;;;;5070528;28;20238;-76
2022/08/14 07:41:14;;;;;;;19.77;17.67;;;18.70;99.90;;;;;;5070304;28;20290;-76
2022/08/14 07:43:42;;;;;;;18.53;16.63;;;18.80;99.90;;;;;;5078410;28;20303;-76
2022/08/14 07:46:09;;;;;;;19.20;17.30;;;18.80;99.90;;;;;;5092730;28;20263;-77
2022/08/14 07:48:40;;;;;;;21.93;18.23;;;18.70;99.90;;;;;;5092785;28;20262;-76
2022/08/14 07:51:07;;;;;;;19.77;17.67;;;18.80;99.90;;;;;;5092744;28;20202;-76
2022/08/14 07:53:35;;;;;;;19.93;17.93;;;18.70;99.90;;;;;;5092937;28;20233;-76
2022/08/14 07:56:02;;;;;;;20.10;17.90;;;18.80;99.90;;;;;;5092129;28;20395;-76
2022/08/14 07:58:29;;;;;;;18.53;16.77;;;18.70;99.90;;;;;;5092780;28;20234;-76
2022/08/14 08:00:56;;;;;;;20.10;18.00;;;18.70;99.90;;;;;;5092384;28;20206;-76
2022/08/14 08:03:26;;;;;;;21.50;19.07;;;18.80;99.90;;;;;;5092326;28;20255;-76
2022/08/14 08:05:53;;;;;;;21.17;18.97;;;18.70;99.90;;;;;;5100718;28;20294;-77
2022/08/14 08:08:21;;;;;;;21.50;19.33;;;18.70;99.90;;;;;;5116930;27;20232;-76
2022/08/14 08:10:50;;;;;;;20.83;18.73;;;18.60;99.90;;;;;;5116318;28;20233;-76
2022/08/14 08:13:20;;;;;;;22.40;20.10;;;18.70;99.90;;;;;;5116880;28;20205;-76
2022/08/14 08:15:48;;;;;;;22.87;20.37;;;18.70;99.90;;;;;;5116547;28;20243;-76
2022/08/14 08:18:17;;;;;;;22.60;20.23;;;18.80;99.90;;;;;;5116293;28;20233;-76
2022/08/14 08:20:46;;;;;;;23.20;20.87;;;18.70;99.90;;;;;;5116342;28;20255;-76
2022/08/14 08:23:15;;;;;;;23.37;20.83;;;18.60;99.90;;;;;;5116273;28;20229;-76
2022/08/14 08:25:45;;;;;;;22.47;20.07;;;18.70;99.90;;;;;;5116673;28;20209;-76
2022/08/14 08:28:15;;;;;;;22.87;19.93;;;18.60;99.90;;;;;;5116182;28;20233;-76
2022/08/14 08:30:47;;;;;;;22.33;20.23;;;18.60;99.90;;;;;;5116409;28;20684;-76
2022/08/14 08:33:15;;;;;;;22.93;20.53;;;18.50;99.90;;;;;;5116469;28;20289;-76
2022/08/14 08:35:42;;;;;;;24.20;21.67;;;18.60;99.90;;;;;;5116585;28;20608;-76
2022/08/14 08:38:13;;;;;;;23.37;20.73;;;18.40;99.90;;;;;;5115869;28;20654;-76
2022/08/14 08:40:42;;;;;;;24.17;21.57;;;18.80;99.90;;;;;;5116059;28;20198;-76
2022/08/14 08:43:20;;;;;;;25.70;23.00;;;18.50;99.90;;;;;;5116135;28;20205;-76
2022/08/14 08:45:54;;;;;;;24.53;21.97;;;18.60;99.90;;;;;;5116199;28;20236;-76
2022/08/14 08:48:22;;;;;;;24.87;22.17;;;18.60;99.90;;;;;;5116076;28;20608;-76
2022/08/14 08:50:49;;;;;;;24.43;21.93;;;18.70;99.90;;;;;;5116071;28;20197;-76
2022/08/14 08:53:16;;;;;;;23.77;21.37;;;18.50;99.90;;;;;;5115616;28;20574;-76
2022/08/14 08:55:45;;;;;;;25.13;22.70;;;18.60;99.90;;;;;;5115827;28;20253;-76
2022/08/14 08:58:14;;;;;;;22.93;20.63;;;18.50;99.90;;;;;;5115910;28;20644;-76
2022/08/14 09:00:47;;;;;;;22.73;20.53;;;18.80;99.90;;;;;;5115941;28;20240;-76
2022/08/14 09:03:17;;;;;;;22.97;20.67;;;18.90;99.90;;;;;;5115697;28;20202;-76
2022/08/14 09:05:52;;;;;;;21.80;19.60;;;18.90;99.90;;;;;;5108804;28;20225;-76
2022/08/14 09:08:20;;;;;;;22.87;20.57;;;19.00;99.90;;;;;;5095011;28;20233;-76
2022/08/14 09:10:48;;;;;;;21.67;19.57;;;19.10;99.90;;;;;;5095158;28;20234;-77
2022/08/14 09:13:16;;;;;;;22.53;20.33;;;19.20;99.90;;;;;;5095032;28;20249;-76
2022/08/14 09:15:46;;;;;;;22.10;20.00;;;19.20;99.90;;;;;;5094927;28;20230;-76
2022/08/14 09:18:14;;;;;;;22.37;20.10;;;19.20;99.90;;;;;;5094438;28;20230;-76
2022/08/14 09:20:43;;;;;;;22.43;20.03;;;19.30;99.90;;;;;;5095248;28;20281;-76
2022/08/14 09:23:11;;;;;;;22.73;20.33;;;19.40;99.90;;;;;;5094682;28;20832;-76
2022/08/14 09:25:40;;;;;;;23.05;20.85;;;19.50;99.90;;;;;;5095047;28;20721;-76
2022/08/14 09:28:08;;;;;;;23.65;21.02;;;19.50;99.90;;;;;;5095278;28;20212;-75
2022/08/14 09:30:38;;;;;;;23.55;21.25;;;19.60;99.90;;;;;;5094855;28;20294;-76
2022/08/14 09:33:29;;;;;;;23.45;21.25;;;19.50;99.90;;;;;;5095016;28;20721;-75
2022/08/14 09:36:25;;;;;;;32.38;28.90;;;19.70;99.90;;;;;;5094520;28;20268;-76
2022/08/14 09:39:01;;;;;;;27.60;24.63;;;19.40;99.90;;;;;;5094686;28;20208;-76
2022/08/14 09:41:37;;;;;;;24.65;22.02;;;17.00;99.90;;;;;;5094990;28;20256;-75
2022/08/14 09:44:07;;;;;;;24.15;21.77;;;;;;;;;;5094590;28;20225;-75
2022/08/14 09:46:34;;;;;;;23.17;20.88;;;19.90;99.90;;;;;;5094735;28;20194;-74
2022/08/14 09:49:05;;;;;;;23.88;21.58;;;19.70;99.90;;;;;;5094512;28;20202;-76
2022/08/14 09:51:33;;;;;;;23.13;20.92;;;19.30;99.90;;;;;;5094197;28;20678;-74
2022/08/14 09:54:05;;;;;;;23.17;20.98;;;19.50;99.90;;;;;;5094513;28;20241;-75
2022/08/14 09:56:44;;;;;;;22.67;20.42;;;19.60;99.90;;;;;;5094411;28;20198;-75
2022/08/14 09:59:13;;;;;;;22.42;20.25;;;19.80;99.90;;;;;;5094555;28;20249;-76
2022/08/14 10:01:40;;;;;;;24.08;21.73;;;19.80;99.90;;;;;;5094224;28;20198;-76
2022/08/14 10:04:19;;;;;;;23.27;20.90;;;19.90;99.90;;;;;;5093980;28;20312;-75
2022/08/14 10:06:46;;;;;;;23.85;21.58;;;19.70;99.90;;;;;;5093740;28;20212;-75
2022/08/14 10:09:14;;;;;;;24.85;22.45;;;19.60;99.90;;;;;;5093969;28;20289;-76
2022/08/14 10:11:52;;;;;;;24.92;22.40;;;19.70;99.90;;;;;;5093958;28;20289;-76
2022/08/14 10:14:23;;;;;;;24.55;21.90;;;19.70;99.90;;;;;;5094047;28;20662;-78
2022/08/14 10:16:53;;;;;;;23.58;21.38;;;19.70;99.90;;;;;;5094244;28;20225;-76
2022/08/14 10:19:23;;;;;;;24.27;21.98;;;19.40;99.90;;;;;;5093598;28;20199;-77
2022/08/14 10:21:59;;;;;;;23.93;21.57;;;19.50;99.90;;;;;;5093673;28;20234;-75
2022/08/14 10:24:28;;;;;;;23.63;21.42;;;19.60;99.90;;;;;;5093764;28;20222;-75
2022/08/14 10:26:55;;;;;;;22.83;20.65;;;19.70;99.90;;;;;;5093912;28;20225;-76
2022/08/14 10:29:31;;;;;;;22.27;20.10;;;19.80;99.90;;;;;;5093794;28;20201;-76
2022/08/14 10:31:59;;;;;;;24.45;20.17;;;19.90;99.90;;;;;;5093551;28;20198;-76
2022/08/14 10:34:33;;;;;;;21.05;18.85;;;20.00;99.90;;;;;;5093925;28;20226;-76
2022/08/14 10:37:06;;;;;;;21.50;19.33;;;20.00;99.90;;;;;;5093788;28;20197;-75
2022/08/14 10:39:36;;;;;;;23.63;20.67;;;20.00;99.90;;;;;;5093531;28;20598;-78
2022/08/14 10:42:05;;;;;;;22.15;19.95;;;20.10;99.90;;;;;;5093407;28;20202;-76
2022/08/14 10:44:34;;;;;;;19.98;17.88;;;20.10;99.90;;;;;;5093328;28;20222;-76
2022/08/14 10:47:04;;;;;;;23.27;20.98;;;20.00;99.90;;;;;;5093319;28;20220;-76
2022/08/14 10:49:34;;;;;;;21.63;19.33;;;20.30;99.90;;;;;;5093045;28;20658;-75
2022/08/14 10:52:06;;;;;;;19.60;17.77;;;20.20;99.90;;;;;;5093414;28;20209;-76
2022/08/14 10:54:36;;;;;;;20.90;18.58;;;20.10;99.90;;;;;;5093473;28;20226;-76
2022/08/14 10:57:18;;;;;;;18.60;16.60;;;20.20;99.90;;;;;;5093351;28;20289;-76
2022/08/14 10:59:50;;;;;;;19.17;17.30;;;20.20;99.90;;;;;;5093501;28;20202;-76
2022/08/14 11:02:28;;;;;;;18.42;16.63;;;20.20;99.90;;;;;;5093267;28;20678;-76
2022/08/14 11:05:11;;;;;;;19.48;17.52;;;20.10;99.90;;;;;;5092659;28;20732;-76
2022/08/14 11:07:40;;;;;;;19.60;17.70;;;20.10;99.90;;;;;;5093196;28;20194;-76
2022/08/14 11:10:10;;;;;;;18.02;16.42;;;19.90;99.90;;;;;;5093473;28;20206;-76
2022/08/14 11:12:46;;;;;;;18.85;16.90;;;20.40;99.90;;;;;;5092972;28;20635;-76
2022/08/14 11:15:16;;;;;;;19.92;16.95;;;20.20;99.90;;;;;;5092944;28;20198;-76
2022/08/14 11:17:46;;;;;;;19.60;17.80;;;20.30;99.90;;;;;;5092998;28;20210;-76
2022/08/14 11:20:16;;;;;;;19.30;17.40;;;20.30;99.90;;;;;;5093069;28;20662;-76
2022/08/14 11:22:43;;;;;;;18.95;17.05;;;20.10;99.90;;;;;;5092990;28;20606;-76
2022/08/14 11:25:12;;;;;;;19.45;17.55;;;20.20;99.90;;;;;;5093060;28;20254;-76
2022/08/14 11:27:41;;;;;;;20.58;18.30;;;20.30;99.90;;;;;;5092923;28;20198;-76
2022/08/14 11:30:11;;;;;;;18.73;16.90;;;20.40;99.90;;;;;;5092701;28;20631;-76
2022/08/14 11:32:41;;;;;;;17.88;16.13;;;20.50;99.90;;;;;;5092867;28;20233;-76
2022/08/14 11:35:15;;;;;;;19.02;16.42;;;20.50;99.90;;;;;;5092745;28;20199;-76
2022/08/14 11:37:53;;;;;;;18.35;16.55;;;20.40;99.90;;;;;;5093113;28;20198;-76
2022/08/14 11:40:23;;;;;;;19.02;17.13;;;20.40;99.90;;;;;;5092867;28;20662;-76
2022/08/14 11:42:52;;;;;;;19.35;16.23;;;20.40;99.90;;;;;;5096015;28;20201;-76
2022/08/14 11:45:19;;;;;;;16.92;15.15;;;20.40;99.90;;;;;;5097020;28;20222;-76
2022/08/14 11:47:46;;;;;;;17.05;15.35;;;20.30;99.90;;;;;;5096650;28;20225;-76
2022/08/14 11:50:16;;;;;;;17.08;15.30;;;20.50;99.90;;;;;;5096579;28;20289;-76
2022/08/14 11:52:43;;;;;;;16.73;14.95;;;20.50;99.90;;;;;;5096700;28;20203;-76
2022/08/14 11:55:13;;;;;;;15.50;13.90;;;20.60;99.90;;;;;;5096524;28;20245;-76
2022/08/14 11:57:42;;;;;;;15.38;13.50;;;20.50;99.90;;;;;;5096817;28;20218;-76
2022/08/14 12:00:11;;;;;;;15.85;14.35;;;21.00;99.90;;;;;;5096746;28;20654;-76
2022/08/14 12:02:50;;;;;;;15.43;13.95;;;20.50;99.90;;;;;;5096568;28;20202;-76
2022/08/14 12:05:17;;;;;;;16.55;14.65;;;20.50;99.90;;;;;;5099614;28;20266;-76
2022/08/14 12:07:49;;;;;;;17.67;15.85;;;20.30;99.90;;;;;;5117049;28;20225;-76
2022/08/14 12:10:19;;;;;;;15.43;13.48;;;20.40;99.90;;;;;;5116873;28;20236;-76
2022/08/14 12:12:48;;;;;;;14.77;12.70;;;20.00;99.90;;;;;;5116790;28;20233;-76
2022/08/14 12:15:15;;;;;;;16.73;14.77;;;20.00;99.90;;;;;;5116517;28;20314;-76
2022/08/14 12:17:48;;;;;;;19.15;16.17;;;19.90;99.90;;;;;;5117356;28;20205;-76
2022/08/14 12:20:15;;;;;;;16.15;14.50;;;19.70;99.90;;;;;;5116749;28;20653;-76
2022/08/14 12:22:44;;;;;;;16.70;15.00;;;19.60;99.90;;;;;;5116738;28;20292;-76
2022/08/14 12:25:14;;;;;;;15.95;14.30;;;19.50;99.90;;;;;;5116712;28;20225;-77
2022/08/14 12:27:48;;;;;;;12.40;9.98;;;19.40;99.90;;;;;;5116787;28;20229;-76
2022/08/14 12:30:26;;;;;;;8.40;7.57;;;19.30;99.90;;;;;;5116177;28;20201;-76
2022/08/14 12:32:55;;;;;;;10.45;8.82;;;19.10;99.90;;;;;;5116485;28;20244;-76
2022/08/14 12:35:22;;;;;;;12.07;10.83;;;19.10;99.90;;;;;;5116255;28;20204;-76
2022/08/14 12:37:51;;;;;;;10.47;9.37;;;18.80;99.90;;;;;;5116492;28;20208;-76
2022/08/14 12:40:23;;;;;;;11.30;8.88;;;19.30;99.90;;;;;;5116340;28;20229;-76
2022/08/14 12:42:55;;;;;;;9.80;8.77;;;19.20;99.90;;;;;;5116482;28;20665;-76
2022/08/14 12:45:32;;;;;;;8.93;8.10;;;19.70;99.90;;;;;;5115939;28;20228;-76
2022/08/14 12:48:04;;;;;;;7.10;6.50;;;19.00;99.90;;;;;;5116248;28;20229;-76
2022/08/14 12:50:39;;;;;;;6.20;5.60;;;19.00;99.90;;;;;;5116546;28;20229;-76
2022/08/14 12:53:06;;;;;;;6.83;5.80;;;19.30;99.90;;;;;;5114651;28;20634;-76
2022/08/14 12:55:34;;;;;;;7.60;6.87;;;18.90;99.90;;;;;;5116146;28;20241;-75
2022/08/14 12:58:05;;;;;;;8.10;7.30;;;18.90;99.90;;;;;;5115977;28;20248;-76